createdAt,value
2018-09-30T00:04:01.980Z,22.8
2018-09-30T00:14:01.201Z,22.9
2018-09-30T00:24:00.423Z,22.8
2018-09-30T00:33:59.643Z,22.8
2018-09-30T00:43:58.864Z,22.8
2018-09-30T00:53:58.084Z,22.8
2018-09-30T01:03:57.309Z,22.8
2018-09-30T01:13:56.527Z,22.8
2018-09-30T01:23:55.748Z,22.8
2018-09-30T01:33:54.970Z,22.8
2018-09-30T01:43:54.198Z,22.7
2018-09-30T01:53:53.412Z,22.8
2018-09-30T02:03:52.688Z,22.7
2018-09-30T02:13:51.856Z,22.7
2018-09-30T02:23:51.074Z,22.6
2018-09-30T02:33:50.302Z,22.6
2018-09-30T02:43:49.518Z,22.6
2018-09-30T02:53:48.738Z,22.6
2018-09-30T03:03:47.961Z,22.6
2018-09-30T03:13:47.191Z,22.6
2018-09-30T03:23:46.400Z,22.6
2018-09-30T03:33:45.620Z,22.6
2018-09-30T03:43:44.841Z,22.6
2018-09-30T03:53:44.066Z,22.6
2018-09-30T04:03:43.293Z,22.6
2018-09-30T04:13:42.519Z,22.6
2018-09-30T04:23:41.730Z,22.6
2018-09-30T04:33:40.957Z,22.5
2018-09-30T04:43:40.172Z,22.5
2018-09-30T04:53:39.393Z,22.4
2018-09-30T05:03:38.614Z,22.4
2018-09-30T05:13:37.836Z,22.4
2018-09-30T05:23:37.058Z,22.4
2018-09-30T05:33:36.279Z,22.4
2018-09-30T05:43:35.499Z,22.4
2018-09-30T05:53:34.728Z,22.4
2018-09-30T06:03:33.942Z,20.8
2018-09-30T06:13:33.169Z,19.9
2018-09-30T06:23:32.385Z,19.4
2018-09-30T06:33:31.605Z,19.6
2018-09-30T06:43:30.824Z,19.8
2018-09-30T06:53:30.097Z,20.2
2018-09-30T07:03:29.274Z,20.9
2018-09-30T07:13:28.488Z,21.5
2018-09-30T07:33:26.939Z,22.3
2018-09-30T07:43:26.158Z,22.4
2018-09-30T07:53:25.381Z,22.6
2018-09-30T08:03:24.615Z,22.7
2018-09-30T08:13:23.826Z,22.8
2018-09-30T08:23:23.049Z,22.8
2018-09-30T08:33:22.272Z,22.6
2018-09-30T08:43:21.498Z,22.5
2018-09-30T08:53:20.724Z,22.5
2018-09-30T09:03:19.939Z,22.5
2018-09-30T09:13:19.165Z,22.5
2018-09-30T09:23:18.387Z,22.4
2018-09-30T09:33:17.605Z,22.4
2018-09-30T09:43:16.832Z,22.5
2018-09-30T09:53:16.052Z,22.6
2018-09-30T10:03:15.274Z,22.4
2018-09-30T10:13:14.573Z,22.6
2018-09-30T10:23:13.715Z,22.6
2018-09-30T10:33:12.938Z,22.6
2018-09-30T10:43:12.156Z,22.4
2018-09-30T10:53:11.382Z,22.3
2018-09-30T11:03:10.602Z,22.3
2018-09-30T11:13:09.823Z,22.4
2018-09-30T11:23:09.043Z,22.6
2018-09-30T11:33:08.267Z,22.6
2018-09-30T11:43:07.487Z,22.6
2018-09-30T11:53:06.702Z,22.6
2018-09-30T12:03:05.926Z,22.6
2018-09-30T12:13:05.146Z,22.5
2018-09-30T12:23:04.370Z,22.5
2018-09-30T12:33:03.593Z,22.5
2018-09-30T12:43:02.811Z,22.5
2018-09-30T12:53:02.028Z,22.5
2018-09-30T13:03:01.253Z,22.4
2018-09-30T13:13:00.473Z,22.4
2018-09-30T13:22:59.689Z,22.4
2018-09-30T13:32:58.918Z,22.2
2018-09-30T13:42:58.135Z,22
2018-09-30T13:52:57.355Z,21.9
2018-09-30T14:02:56.579Z,22
2018-09-30T14:12:55.797Z,21.9
2018-09-30T14:22:55.017Z,21.9
2018-09-30T14:32:54.245Z,21.9
2018-09-30T14:42:53.460Z,21.9
2018-09-30T14:52:52.730Z,21.8
2018-09-30T15:02:51.962Z,21.8
2018-09-30T15:12:51.117Z,21.8
2018-09-30T15:22:50.344Z,21.8
2018-09-30T15:32:49.558Z,21.7
2018-09-30T15:42:48.836Z,21.8
2018-09-30T15:52:48.004Z,21.8
2018-09-30T16:02:47.222Z,21.8
2018-09-30T16:12:46.444Z,21.8
2018-09-30T16:22:45.662Z,21.8
2018-09-30T16:32:44.897Z,21.8
2018-09-30T16:42:44.155Z,21.9
2018-09-30T16:52:43.326Z,21.9
2018-09-30T17:02:42.546Z,21.8
2018-09-30T17:12:41.783Z,21.8
2018-09-30T17:22:40.986Z,21.8
2018-09-30T17:32:40.206Z,21.8
2018-09-30T17:42:39.421Z,21.9
2018-09-30T17:52:38.641Z,21.9
2018-09-30T18:02:37.946Z,21.9
2018-09-30T18:12:37.089Z,21.9
2018-09-30T18:22:36.342Z,21.9
2018-09-30T18:32:35.526Z,21.9
2018-09-30T18:42:34.809Z,21.9
2018-09-30T18:52:33.970Z,21.9
2018-09-30T19:02:33.191Z,21.9
2018-09-30T19:12:33.154Z,21.9
2018-09-30T19:22:31.628Z,21.9
2018-09-30T19:32:30.853Z,21.9
2018-09-30T19:42:30.077Z,21.9
2018-09-30T19:52:29.290Z,21.9
2018-09-30T20:02:28.512Z,21.9
2018-09-30T20:12:27.733Z,21.8
2018-09-30T20:22:26.955Z,21.9
2018-09-30T20:32:26.171Z,21.9
2018-09-30T20:42:25.391Z,21.9
2018-09-30T20:52:24.617Z,21.9
2018-09-30T21:02:23.835Z,21.9
2018-09-30T21:12:23.058Z,21.9
2018-09-30T21:22:22.273Z,21.9
2018-09-30T21:32:21.501Z,21.8
2018-09-30T21:42:20.724Z,21.8
2018-09-30T21:52:19.939Z,21.8
2018-09-30T22:02:19.161Z,21.8
2018-09-30T22:12:18.380Z,21.8
2018-09-30T22:22:17.601Z,21.8
2018-09-30T22:32:16.817Z,21.8
2018-09-30T22:42:16.047Z,21.7
2018-09-30T22:52:15.264Z,21.8
2018-09-30T23:02:14.483Z,21.7
2018-09-30T23:12:13.702Z,21.7
2018-09-30T23:22:12.923Z,21.7
2018-09-30T23:32:12.137Z,21.6
2018-09-30T23:42:11.362Z,21.6
2018-09-30T23:52:10.578Z,21.7
